sensor_id;sensor_type;location;lat;lon;timestamp;pressure;altitude;pressure_sealevel;temperature;humidity
76994;BME280;66749;47.406;18.822;2023-03-20T00:00:29;100368.66;;;10.61;48.73
76994;BME280;66749;47.406;18.822;2023-03-20T00:01:02;100371.09;;;10.64;49.44
76994;BME280;66749;47.406;18.822;2023-03-20T00:01:34;100364.19;;;10.63;49.09
76994;BME280;66749;47.406;18.822;2023-03-20T00:02:09;100358.97;;;10.63;49.00
76994;BME280;66749;47.406;18.822;2023-03-20T00:02:41;100363.25;;;10.64;49.07
76994;BME280;66749;47.406;18.822;2023-03-20T00:03:13;100372.84;;;10.63;49.70
76994;BME280;66749;47.406;18.822;2023-03-20T00:03:45;100368.47;;;10.64;48.98
76994;BME280;66749;47.406;18.822;2023-03-20T00:04:17;100363.25;;;10.64;49.61
76994;BME280;66749;47.406;18.822;2023-03-20T00:04:49;100365.88;;;10.64;49.73
76994;BME280;66749;47.406;18.822;2023-03-20T00:05:23;100368.47;;;10.64;49.74
76994;BME280;66749;47.406;18.822;2023-03-20T00:05:55;100366.81;;;10.63;50.44
76994;BME280;66749;47.406;18.822;2023-03-20T00:06:27;100372.94;;;10.62;50.88
76994;BME280;66749;47.406;18.822;2023-03-20T00:07:02;100374.03;;;10.57;51.87
76994;BME280;66749;47.406;18.822;2023-03-20T00:07:34;100369.09;;;10.53;52.74
76994;BME280;66749;47.406;18.822;2023-03-20T00:08:06;100366.75;;;10.48;52.97
76994;BME280;66749;47.406;18.822;2023-03-20T00:08:39;100368.50;;;10.48;52.95
76994;BME280;66749;47.406;18.822;2023-03-20T00:09:10;100370.38;;;10.46;53.21
76994;BME280;66749;47.406;18.822;2023-03-20T00:09:43;100372.88;;;10.47;53.19
76994;BME280;66749;47.406;18.822;2023-03-20T00:10:17;100372.78;;;10.49;51.98
76994;BME280;66749;47.406;18.822;2023-03-20T00:10:49;100365.81;;;10.49;51.75
76994;BME280;66749;47.406;18.822;2023-03-20T00:11:34;100377.25;;;10.47;51.64
76994;BME280;66749;47.406;18.822;2023-03-20T00:12:13;100374.75;;;10.45;51.23
76994;BME280;66749;47.406;18.822;2023-03-20T00:12:47;100374.75;;;10.45;52.06
76994;BME280;66749;47.406;18.822;2023-03-20T00:13:25;100376.59;;;10.43;51.99
76994;BME280;66749;47.406;18.822;2023-03-20T00:14:33;100372.13;;;10.45;51.68
76994;BME280;66749;47.406;18.822;2023-03-20T00:15:09;100373.16;;;10.43;51.90
76994;BME280;66749;47.406;18.822;2023-03-20T00:15:48;100376.44;;;10.46;51.87
76994;BME280;66749;47.406;18.822;2023-03-20T00:16:22;100377.44;;;10.44;51.12
76994;BME280;66749;47.406;18.822;2023-03-20T00:16:54;100377.44;;;10.44;51.64
76994;BME280;66749;47.406;18.822;2023-03-20T00:17:26;100378.28;;;10.44;51.36
76994;BME280;66749;47.406;18.822;2023-03-20T00:17:58;100379.13;;;10.45;50.61
76994;BME280;66749;47.406;18.822;2023-03-20T00:18:30;100379.97;;;10.45;49.75
76994;BME280;66749;47.406;18.822;2023-03-20T00:19:03;100383.41;;;10.46;50.08
76994;BME280;66749;47.406;18.822;2023-03-20T00:19:35;100378.28;;;10.44;50.35
76994;BME280;66749;47.406;18.822;2023-03-20T00:20:13;100377.25;;;10.47;49.16
76994;BME280;66749;47.406;18.822;2023-03-20T00:20:46;100385.84;;;10.49;49.32
76994;BME280;66749;47.406;18.822;2023-03-20T00:21:18;100380.56;;;10.50;49.18
76994;BME280;66749;47.406;18.822;2023-03-20T00:21:53;100380.47;;;10.52;49.34
76994;BME280;66749;47.406;18.822;2023-03-20T00:22:25;100377.06;;;10.50;49.85
76994;BME280;66749;47.406;18.822;2023-03-20T00:22:59;100382.25;;;10.51;49.48
76994;BME280;66749;47.406;18.822;2023-03-20T00:23:31;100380.28;;;10.55;48.78
76994;BME280;66749;47.406;18.822;2023-03-20T00:24:03;100382.06;;;10.54;49.03
76994;BME280;66749;47.406;18.822;2023-03-20T00:24:34;100383.81;;;10.54;49.29
76994;BME280;66749;47.406;18.822;2023-03-20T00:25:11;100382.06;;;10.54;48.85
76994;BME280;66749;47.406;18.822;2023-03-20T00:25:45;100377.75;;;10.53;49.37
76994;BME280;66749;47.406;18.822;2023-03-20T00:26:18;100379.69;;;10.50;49.93
76994;BME280;66749;47.406;18.822;2023-03-20T00:26:51;100377.84;;;10.52;48.78
76994;BME280;66749;47.406;18.822;2023-03-20T00:27:23;100378.59;;;10.54;48.76
76994;BME280;66749;47.406;18.822;2023-03-20T00:27:55;100376.84;;;10.54;49.21
76994;BME280;66749;47.406;18.822;2023-03-20T00:28:39;100376.84;;;10.54;49.23
76994;BME280;66749;47.406;18.822;2023-03-20T00:29:32;100377.94;;;10.50;50.34
76994;BME280;66749;47.406;18.822;2023-03-20T00:30:18;100376.34;;;10.48;51.15
76994;BME280;66749;47.406;18.822;2023-03-20T00:30:51;100376.44;;;10.46;52.04
76994;BME280;66749;47.406;18.822;2023-03-20T00:31:32;100371.38;;;10.43;52.00
76994;BME280;66749;47.406;18.822;2023-03-20T00:32:07;100375.69;;;10.44;51.25
76994;BME280;66749;47.406;18.822;2023-03-20T00:32:42;100377.34;;;10.45;51.82
76994;BME280;66749;47.406;18.822;2023-03-20T00:33:14;100382.81;;;10.41;52.20
76994;BME280;66749;47.406;18.822;2023-03-20T00:33:46;100376.75;;;10.40;52.25
76994;BME280;66749;47.406;18.822;2023-03-20T00:34:19;100386.44;;;10.38;51.31
76994;BME280;66749;47.406;18.822;2023-03-20T00:34:52;100376.75;;;10.40;49.97
76994;BME280;66749;47.406;18.822;2023-03-20T00:35:56;100377.94;;;10.35;51.08
76994;BME280;66749;47.406;18.822;2023-03-20T00:36:29;100384.78;;;10.37;50.45
76994;BME280;66749;47.406;18.822;2023-03-20T00:37:01;100380.13;;;10.42;49.77
76994;BME280;66749;47.406;18.822;2023-03-20T00:37:33;100379.28;;;10.42;49.74
76994;BME280;66749;47.406;18.822;2023-03-20T00:38:04;100380.13;;;10.42;49.93
76994;BME280;66749;47.406;18.822;2023-03-20T00:38:38;100375.00;;;10.41;50.60
76994;BME280;66749;47.406;18.822;2023-03-20T00:39:09;100382.81;;;10.41;50.66
76994;BME280;66749;47.406;18.822;2023-03-20T00:39:41;100382.91;;;10.39;50.83
76994;BME280;66749;47.406;18.822;2023-03-20T00:40:13;100379.66;;;10.36;51.24
76994;BME280;66749;47.406;18.822;2023-03-20T00:40:45;100380.63;;;10.33;50.38
76994;BME280;66749;47.406;18.822;2023-03-20T00:41:34;100387.19;;;10.40;49.12
76994;BME280;66749;47.406;18.822;2023-03-20T00:42:19;100377.69;;;10.39;49.60
76994;BME280;66749;47.406;18.822;2023-03-20T00:42:58;100375.09;;;10.39;50.04
76994;BME280;66749;47.406;18.822;2023-03-20T00:43:30;100382.16;;;10.37;50.20
76994;BME280;66749;47.406;18.822;2023-03-20T00:44:19;100377.69;;;10.39;50.21
76994;BME280;66749;47.406;18.822;2023-03-20T00:44:54;100374.44;;;10.36;50.29
76994;BME280;66749;47.406;18.822;2023-03-20T00:45:32;100377.19;;;10.33;50.97
76994;BME280;66749;47.406;18.822;2023-03-20T00:46:11;100375.75;;;10.27;51.57
76994;BME280;66749;47.406;18.822;2023-03-20T00:46:46;100373.47;;;10.21;51.31
76994;BME280;66749;47.406;18.822;2023-03-20T00:47:23;100377.75;;;10.22;51.29
76994;BME280;66749;47.406;18.822;2023-03-20T00:47:56;100381.16;;;10.24;50.25
76994;BME280;66749;47.406;18.822;2023-03-20T00:48:29;100370.19;;;10.33;49.09
76994;BME280;66749;47.406;18.822;2023-03-20T00:49:00;100374.44;;;10.36;49.42
76994;BME280;66749;47.406;18.822;2023-03-20T00:49:34;100372.66;;;10.36;49.41
76994;BME280;66749;47.406;18.822;2023-03-20T00:50:20;100378.78;;;10.35;49.81
76994;BME280;66749;47.406;18.822;2023-03-20T00:50:53;100379.66;;;10.36;49.11
76994;BME280;66749;47.406;18.822;2023-03-20T00:51:25;100370.94;;;10.35;49.79
76994;BME280;66749;47.406;18.822;2023-03-20T00:51:57;100375.31;;;10.35;50.43
76994;BME280;66749;47.406;18.822;2023-03-20T00:52:29;100375.41;;;10.33;50.55
76994;BME280;66749;47.406;18.822;2023-03-20T00:53:01;100371.13;;;10.32;51.04
76994;BME280;66749;47.406;18.822;2023-03-20T00:53:32;100374.47;;;10.34;50.68
76994;BME280;66749;47.406;18.822;2023-03-20T00:54:11;100376.53;;;10.29;51.16
76994;BME280;66749;47.406;18.822;2023-03-20T00:54:42;100374.75;;;10.30;50.45
76994;BME280;66749;47.406;18.822;2023-03-20T00:55:15;100370.38;;;10.30;50.92
76994;BME280;66749;47.406;18.822;2023-03-20T00:55:46;100369.53;;;10.30;50.82
76994;BME280;66749;47.406;18.822;2023-03-20T00:56:32;100379.97;;;10.30;50.90
76994;BME280;66749;47.406;18.822;2023-03-20T00:57:58;100368.19;;;10.22;52.36
76994;BME280;66749;47.406;18.822;2023-03-20T00:58:31;100370.88;;;10.21;52.26
76994;BME280;66749;47.406;18.822;2023-03-20T00:59:03;100366.72;;;10.17;52.22
76994;BME280;66749;47.406;18.822;2023-03-20T00:59:39;100371.94;;;10.17;51.73
76994;BME280;66749;47.406;18.822;2023-03-20T01:00:51;100372.03;;;10.15;52.03
76994;BME280;66749;47.406;18.822;2023-03-20T01:01:23;100366.91;;;10.14;51.40
76994;BME280;66749;47.406;18.822;2023-03-20T01:01:55;100374.31;;;10.06;53.25
76994;BME280;66749;47.406;18.822;2023-03-20T01:02:28;100372.59;;;10.05;53.47
76994;BME280;66749;47.406;18.822;2023-03-20T01:03:43;100372.03;;;9.99;53.14
76994;BME280;66749;47.406;18.822;2023-03-20T01:04:17;100370.50;;;9.95;54.10
76994;BME280;66749;47.406;18.822;2023-03-20T01:04:50;100379.34;;;9.93;54.21
76994;BME280;66749;47.406;18.822;2023-03-20T01:05:24;100371.50;;;9.93;54.09
76994;BME280;66749;47.406;18.822;2023-03-20T01:05:56;100375.72;;;9.95;54.17
76994;BME280;66749;47.406;18.822;2023-03-20T01:06:28;100374.78;;;9.96;54.03
76994;BME280;66749;47.406;18.822;2023-03-20T01:07:02;100375.72;;;9.95;53.55
76994;BME280;66749;47.406;18.822;2023-03-20T01:07:34;100372.16;;;9.96;53.16
76994;BME280;66749;47.406;18.822;2023-03-20T01:08:12;100376.53;;;9.96;52.72
76994;BME280;66749;47.406;18.822;2023-03-20T01:08:44;100366.91;;;9.98;52.30
76994;BME280;66749;47.406;18.822;2023-03-20T01:09:16;100373.69;;;10.00;52.62
76994;BME280;66749;47.406;18.822;2023-03-20T01:09:48;100371.19;;;9.99;52.89
76994;BME280;66749;47.406;18.822;2023-03-20T01:10:31;100367.78;;;9.97;52.12
76994;BME280;66749;47.406;18.822;2023-03-20T01:11:03;100367.75;;;9.98;51.76
76994;BME280;66749;47.406;18.822;2023-03-20T01:11:36;100376.50;;;9.97;52.24
76994;BME280;66749;47.406;18.822;2023-03-20T01:12:11;100370.75;;;9.91;52.72
76994;BME280;66749;47.406;18.822;2023-03-20T01:12:45;100376.72;;;9.93;53.11
76994;BME280;66749;47.406;18.822;2023-03-20T01:13:26;100374.03;;;9.94;53.43
76994;BME280;66749;47.406;18.822;2023-03-20T01:13:58;100379.47;;;9.90;53.80
76994;BME280;66749;47.406;18.822;2023-03-20T01:14:30;100376.03;;;9.89;54.34
76994;BME280;66749;47.406;18.822;2023-03-20T01:15:02;100374.34;;;9.88;54.22
76994;BME280;66749;47.406;18.822;2023-03-20T01:15:35;100372.00;;;9.84;54.29
76994;BME280;66749;47.406;18.822;2023-03-20T01:16:20;100374.31;;;9.72;54.45
76994;BME280;66749;47.406;18.822;2023-03-20T01:16:53;100378.69;;;9.72;54.77
76994;BME280;66749;47.406;18.822;2023-03-20T01:17:26;100371.06;;;9.69;55.35
76994;BME280;66749;47.406;18.822;2023-03-20T01:17:58;100365.75;;;9.70;55.21
76994;BME280;66749;47.406;18.822;2023-03-20T01:18:30;100371.81;;;9.71;55.44
76994;BME280;66749;47.406;18.822;2023-03-20T01:19:01;100373.56;;;9.70;55.57
76994;BME280;66749;47.406;18.822;2023-03-20T01:19:33;100373.66;;;9.69;55.97
76994;BME280;66749;47.406;18.822;2023-03-20T01:20:15;100370.44;;;9.64;55.95
76994;BME280;66749;47.406;18.822;2023-03-20T01:20:48;100364.63;;;9.59;55.99
76994;BME280;66749;47.406;18.822;2023-03-20T01:21:20;100371.78;;;9.55;55.93
76994;BME280;66749;47.406;18.822;2023-03-20T01:21:52;100368.56;;;9.50;56.11
76994;BME280;66749;47.406;18.822;2023-03-20T01:22:24;100371.84;;;9.54;56.11
76994;BME280;66749;47.406;18.822;2023-03-20T01:22:55;100364.97;;;9.53;56.30
76994;BME280;66749;47.406;18.822;2023-03-20T01:23:27;100362.28;;;9.54;56.35
76994;BME280;66749;47.406;18.822;2023-03-20T01:23:59;100361.53;;;9.52;56.21
76994;BME280;66749;47.406;18.822;2023-03-20T01:24:30;100355.25;;;9.39;56.47
76994;BME280;66749;47.406;18.822;2023-03-20T01:25:02;100356.41;;;9.33;56.18
76994;BME280;66749;47.406;18.822;2023-03-20T01:25:35;100363.56;;;9.30;56.99
76994;BME280;66749;47.406;18.822;2023-03-20T01:26:56;100358.56;;;9.25;57.00
76994;BME280;66749;47.406;18.822;2023-03-20T01:27:28;100360.41;;;9.23;57.29
76994;BME280;66749;47.406;18.822;2023-03-20T01:28:00;100360.41;;;9.23;57.25
76994;BME280;66749;47.406;18.822;2023-03-20T01:28:32;100362.22;;;9.21;57.02
76994;BME280;66749;47.406;18.822;2023-03-20T01:29:23;100360.41;;;9.23;57.14
76994;BME280;66749;47.406;18.822;2023-03-20T01:29:55;100356.97;;;9.23;56.82
76994;BME280;66749;47.406;18.822;2023-03-20T01:30:29;100362.41;;;9.18;57.11
76994;BME280;66749;47.406;18.822;2023-03-20T01:31:01;100360.72;;;9.17;57.21
76994;BME280;66749;47.406;18.822;2023-03-20T01:31:33;100366.78;;;9.17;57.15
76994;BME280;66749;47.406;18.822;2023-03-20T01:32:11;100352.16;;;9.15;57.30
76994;BME280;66749;47.406;18.822;2023-03-20T01:32:43;100358.44;;;9.11;57.27
76994;BME280;66749;47.406;18.822;2023-03-20T01:33:22;100362.97;;;9.07;57.49
76994;BME280;66749;47.406;18.822;2023-03-20T01:33:54;100362.03;;;9.08;57.74
76994;BME280;66749;47.406;18.822;2023-03-20T01:34:26;100366.44;;;9.06;57.74
76994;BME280;66749;47.406;18.822;2023-03-20T01:34:58;100358.91;;;9.02;57.93
76994;BME280;66749;47.406;18.822;2023-03-20T01:35:29;100358.91;;;9.02;57.82
76994;BME280;66749;47.406;18.822;2023-03-20T01:36:02;100365.78;;;9.03;57.90
76994;BME280;66749;47.406;18.822;2023-03-20T01:36:33;100363.34;;;9.00;58.22
76994;BME280;66749;47.406;18.822;2023-03-20T01:37:16;100357.06;;;9.04;57.81
76994;BME280;66749;47.406;18.822;2023-03-20T01:37:49;100357.81;;;9.06;57.96
76994;BME280;66749;47.406;18.822;2023-03-20T01:38:25;100359.44;;;9.08;57.78
76994;BME280;66749;47.406;18.822;2023-03-20T01:38:57;100364.56;;;9.10;57.69
76994;BME280;66749;47.406;18.822;2023-03-20T01:39:35;100364.56;;;9.10;58.19
76994;BME280;66749;47.406;18.822;2023-03-20T01:40:27;100355.53;;;9.00;58.46
76994;BME280;66749;47.406;18.822;2023-03-20T01:41:42;100359.50;;;9.07;58.45
76994;BME280;66749;47.406;18.822;2023-03-20T01:42:14;100368.22;;;9.06;58.24
76994;BME280;66749;47.406;18.822;2023-03-20T01:42:46;100369.94;;;9.07;58.53
76994;BME280;66749;47.406;18.822;2023-03-20T01:43:21;100360.34;;;9.07;58.55
76994;BME280;66749;47.406;18.822;2023-03-20T01:43:53;100364.56;;;9.10;58.73
76994;BME280;66749;47.406;18.822;2023-03-20T01:44:30;100369.84;;;9.08;58.59
76994;BME280;66749;47.406;18.822;2023-03-20T01:45:14;100364.56;;;9.10;58.23
76994;BME280;66749;47.406;18.822;2023-03-20T01:46:41;100370.16;;;9.02;58.58
76994;BME280;66749;47.406;18.822;2023-03-20T01:47:16;100364.84;;;9.04;58.50
76994;BME280;66749;47.406;18.822;2023-03-20T01:47:48;100356.13;;;9.05;58.35
76994;BME280;66749;47.406;18.822;2023-03-20T01:48:23;100358.66;;;9.06;58.57
76994;BME280;66749;47.406;18.822;2023-03-20T01:50:44;100367.47;;;9.04;58.25
76994;BME280;66749;47.406;18.822;2023-03-20T01:51:16;100366.53;;;9.05;58.08
76994;BME280;66749;47.406;18.822;2023-03-20T01:51:49;100364.03;;;9.03;58.50
76994;BME280;66749;47.406;18.822;2023-03-20T01:52:21;100358.91;;;9.02;58.78
76994;BME280;66749;47.406;18.822;2023-03-20T01:53:40;100358.91;;;9.02;58.64
76994;BME280;66749;47.406;18.822;2023-03-20T01:54:48;100353.91;;;8.97;58.86
76994;BME280;66749;47.406;18.822;2023-03-20T01:55:22;100359.19;;;8.96;58.79
76994;BME280;66749;47.406;18.822;2023-03-20T01:55:58;100358.66;;;8.89;59.49
76994;BME280;66749;47.406;18.822;2023-03-20T01:56:38;100351.84;;;8.86;58.72
76994;BME280;66749;47.406;18.822;2023-03-20T01:57:18;100351.84;;;8.86;59.02
76994;BME280;66749;47.406;18.822;2023-03-20T01:57:53;100354.47;;;8.86;59.21
76994;BME280;66749;47.406;18.822;2023-03-20T01:58:34;100348.41;;;8.86;59.20
76994;BME280;66749;47.406;18.822;2023-03-20T01:59:28;100354.47;;;8.86;59.83
76994;BME280;66749;47.406;18.822;2023-03-20T02:00:09;100351.97;;;8.83;59.83
76994;BME280;66749;47.406;18.822;2023-03-20T02:00:42;100350.59;;;8.76;59.80
76994;BME280;66749;47.406;18.822;2023-03-20T02:01:14;100360.34;;;8.73;59.43
76994;BME280;66749;47.406;18.822;2023-03-20T02:01:47;100358.56;;;8.73;60.20
76994;BME280;66749;47.406;18.822;2023-03-20T02:02:23;100353.38;;;8.73;60.11
76994;BME280;66749;47.406;18.822;2023-03-20T02:02:57;100358.72;;;8.70;59.97
76994;BME280;66749;47.406;18.822;2023-03-20T02:03:29;100358.72;;;8.70;60.13
76994;BME280;66749;47.406;18.822;2023-03-20T02:04:02;100356.06;;;8.72;60.26
76994;BME280;66749;47.406;18.822;2023-03-20T02:04:37;100355.34;;;8.68;60.12
76994;BME280;66749;47.406;18.822;2023-03-20T02:05:15;100354.50;;;8.68;60.46
76994;BME280;66749;47.406;18.822;2023-03-20T02:05:48;100357.94;;;8.68;59.81
76994;BME280;66749;47.406;18.822;2023-03-20T02:06:22;100355.34;;;8.68;59.86
76994;BME280;66749;47.406;18.822;2023-03-20T02:06:56;100353.59;;;8.69;59.75
76994;BME280;66749;47.406;18.822;2023-03-20T02:07:29;100347.50;;;8.70;59.48
76994;BME280;66749;47.406;18.822;2023-03-20T02:08:24;100351.91;;;8.68;59.83
76994;BME280;66749;47.406;18.822;2023-03-20T02:08:57;100354.59;;;8.66;59.80
76994;BME280;66749;47.406;18.822;2023-03-20T02:09:29;100353.06;;;8.62;60.00
76994;BME280;66749;47.406;18.822;2023-03-20T02:10:08;100351.97;;;8.66;59.97
76994;BME280;66749;47.406;18.822;2023-03-20T02:10:44;100351.06;;;8.67;59.71
76994;BME280;66749;47.406;18.822;2023-03-20T02:11:20;100347.69;;;8.65;59.84
76994;BME280;66749;47.406;18.822;2023-03-20T02:11:56;100349.53;;;8.63;59.58
76994;BME280;66749;47.406;18.822;2023-03-20T02:12:30;100349.69;;;8.60;60.08
76994;BME280;66749;47.406;18.822;2023-03-20T02:13:03;100351.34;;;8.61;59.93
76994;BME280;66749;47.406;18.822;2023-03-20T02:13:35;100350.38;;;8.64;60.00
76994;BME280;66749;47.406;18.822;2023-03-20T02:14:08;100353.94;;;8.61;60.17
76994;BME280;66749;47.406;18.822;2023-03-20T02:14:42;100355.72;;;8.60;60.13
76994;BME280;66749;47.406;18.822;2023-03-20T02:15:16;100348.75;;;8.61;60.15
76994;BME280;66749;47.406;18.822;2023-03-20T02:15:58;100351.34;;;8.61;60.32
76994;BME280;66749;47.406;18.822;2023-03-20T02:16:30;100349.53;;;8.63;60.45
76994;BME280;66749;47.406;18.822;2023-03-20T02:17:05;100355.59;;;8.64;60.29
76994;BME280;66749;47.406;18.822;2023-03-20T02:17:39;100355.50;;;8.65;60.13
76994;BME280;66749;47.406;18.822;2023-03-20T02:18:13;100352.91;;;8.65;60.19
76994;BME280;66749;47.406;18.822;2023-03-20T02:18:48;100352.91;;;8.65;60.11
76994;BME280;66749;47.406;18.822;2023-03-20T02:30:27;100341.31;;;8.53;60.51
76994;BME280;66749;47.406;18.822;2023-03-20T02:36:09;100337.00;;;8.54;60.85
76994;BME280;66749;47.406;18.822;2023-03-20T02:39:47;100333.84;;;8.47;60.86
76994;BME280;66749;47.406;18.822;2023-03-20T02:41:13;100336.84;;;8.38;61.31
76994;BME280;66749;47.406;18.822;2023-03-20T02:42:01;100336.03;;;8.38;61.11
76994;BME280;66749;47.406;18.822;2023-03-20T02:42:57;100330.94;;;8.34;61.04
76994;BME280;66749;47.406;18.822;2023-03-20T02:45:28;100334.75;;;8.27;61.51
76994;BME280;66749;47.406;18.822;2023-03-20T02:48:20;100333.50;;;8.17;61.85
76994;BME280;66749;47.406;18.822;2023-03-20T02:49:04;100343.00;;;8.18;62.04
76994;BME280;66749;47.406;18.822;2023-03-20T02:49:56;100339.47;;;8.19;62.12
76994;BME280;66749;47.406;18.822;2023-03-20T02:51:00;100341.31;;;8.17;62.07
76994;BME280;66749;47.406;18.822;2023-03-20T02:51:47;100339.63;;;8.16;62.13
76994;BME280;66749;47.406;18.822;2023-03-20T02:54:38;100342.59;;;8.09;61.72
76994;BME280;66749;47.406;18.822;2023-03-20T02:55:29;100344.31;;;8.08;61.93
76994;BME280;66749;47.406;18.822;2023-03-20T02:56:18;100348.63;;;8.09;61.94
76994;BME280;66749;47.406;18.822;2023-03-20T02:58:26;100351.44;;;8.04;62.29
76994;BME280;66749;47.406;18.822;2023-03-20T02:59:13;100346.44;;;8.00;62.18
76994;BME280;66749;47.406;18.822;2023-03-20T03:00:49;100346.59;;;7.97;62.61
76994;BME280;66749;47.406;18.822;2023-03-20T03:01:11;100354.53;;;7.94;62.34
76994;BME280;66749;47.406;18.822;2023-03-20T03:02:14;100355.50;;;7.91;62.47
76994;BME280;66749;47.406;18.822;2023-03-20T03:02:53;100354.56;;;7.92;61.96
76994;BME280;66749;47.406;18.822;2023-03-20T03:03:54;100360.00;;;7.88;62.20
76994;BME280;66749;47.406;18.822;2023-03-20T03:04:33;100359.28;;;7.84;62.67
76994;BME280;66749;47.406;18.822;2023-03-20T03:05:20;100354.94;;;7.85;62.75
76994;BME280;66749;47.406;18.822;2023-03-20T03:05:58;100357.69;;;7.82;62.75
76994;BME280;66749;47.406;18.822;2023-03-20T03:06:32;100356.91;;;7.79;62.74
76994;BME280;66749;47.406;18.822;2023-03-20T03:07:09;100362.03;;;7.81;62.85
76994;BME280;66749;47.406;18.822;2023-03-20T03:07:45;100362.94;;;7.80;62.88
76994;BME280;66749;47.406;18.822;2023-03-20T03:08:24;100354.34;;;7.78;62.15
76994;BME280;66749;47.406;18.822;2023-03-20T03:09:47;100364.81;;;7.76;62.36
76994;BME280;66749;47.406;18.822;2023-03-20T03:10:25;100366.47;;;7.79;62.02
76994;BME280;66749;47.406;18.822;2023-03-20T03:11:06;100355.50;;;7.72;62.24
76994;BME280;66749;47.406;18.822;2023-03-20T03:11:44;100361.53;;;7.73;62.42
76994;BME280;66749;47.406;18.822;2023-03-20T03:12:22;100369.09;;;7.77;61.97
76994;BME280;66749;47.406;18.822;2023-03-20T03:12:57;100362.38;;;7.73;62.12
76994;BME280;66749;47.406;18.822;2023-03-20T03:13:40;100369.41;;;7.71;61.83
76994;BME280;66749;47.406;18.822;2023-03-20T03:14:23;100362.66;;;7.67;62.58
76994;BME280;66749;47.406;18.822;2023-03-20T03:15:04;100365.25;;;7.67;63.04
76994;BME280;66749;47.406;18.822;2023-03-20T03:15:42;100368.81;;;7.65;62.20
76994;BME280;66749;47.406;18.822;2023-03-20T03:16:20;100368.69;;;7.68;62.18
76994;BME280;66749;47.406;18.822;2023-03-20T03:16:56;100366.84;;;7.70;62.38
76994;BME280;66749;47.406;18.822;2023-03-20T03:17:33;100368.59;;;7.69;62.65
76994;BME280;66749;47.406;18.822;2023-03-20T03:18:22;100366.31;;;7.63;63.11
76994;BME280;66749;47.406;18.822;2023-03-20T03:19:18;100369.94;;;7.59;63.38
76994;BME280;66749;47.406;18.822;2023-03-20T03:19:57;100368.91;;;7.63;62.79
76994;BME280;66749;47.406;18.822;2023-03-20T03:20:35;100373.28;;;7.61;62.66
76994;BME280;66749;47.406;18.822;2023-03-20T03:21:09;100372.47;;;7.61;62.88
76994;BME280;66749;47.406;18.822;2023-03-20T03:21:46;100377.53;;;7.64;62.99
76994;BME280;66749;47.406;18.822;2023-03-20T03:22:18;100369.78;;;7.62;62.83
76994;BME280;66749;47.406;18.822;2023-03-20T03:22:50;100377.53;;;7.64;62.63
76994;BME280;66749;47.406;18.822;2023-03-20T03:23:29;100370.59;;;7.64;62.74
76994;BME280;66749;47.406;18.822;2023-03-20T03:24:02;100367.19;;;7.62;62.82
76994;BME280;66749;47.406;18.822;2023-03-20T03:24:37;100374.97;;;7.62;62.52
76994;BME280;66749;47.406;18.822;2023-03-20T03:25:12;100369.16;;;7.57;62.81
76994;BME280;66749;47.406;18.822;2023-03-20T03:25:45;100365.84;;;7.54;62.89
76994;BME280;66749;47.406;18.822;2023-03-20T03:26:21;100362.47;;;7.51;62.58
76994;BME280;66749;47.406;18.822;2023-03-20T03:26:58;100370.19;;;7.53;62.83
76994;BME280;66749;47.406;18.822;2023-03-20T03:27:36;100364.16;;;7.53;63.35
76994;BME280;66749;47.406;18.822;2023-03-20T03:28:25;100364.16;;;7.53;63.42
76994;BME280;66749;47.406;18.822;2023-03-20T03:29:03;100368.50;;;7.52;63.07
76994;BME280;66749;47.406;18.822;2023-03-20T03:29:39;100369.44;;;7.51;63.13
76994;BME280;66749;47.406;18.822;2023-03-20T03:30:18;100369.53;;;7.48;62.93
76994;BME280;66749;47.406;18.822;2023-03-20T03:30:53;100370.47;;;7.47;63.46
76994;BME280;66749;47.406;18.822;2023-03-20T03:31:28;100367.81;;;7.48;63.02
76994;BME280;66749;47.406;18.822;2023-03-20T03:32:05;100366.09;;;7.47;63.03
76994;BME280;66749;47.406;18.822;2023-03-20T03:33:34;100366.19;;;7.46;62.99
76994;BME280;66749;47.406;18.822;2023-03-20T03:34:12;100363.91;;;7.38;63.05
76994;BME280;66749;47.406;18.822;2023-03-20T03:34:46;100364.69;;;7.40;63.11
76994;BME280;66749;47.406;18.822;2023-03-20T03:35:20;100368.19;;;7.39;63.23
76994;BME280;66749;47.406;18.822;2023-03-20T03:36:01;100362.16;;;7.39;63.45
76994;BME280;66749;47.406;18.822;2023-03-20T03:37:28;100375.41;;;7.33;63.30
76994;BME280;66749;47.406;18.822;2023-03-20T03:40:11;100368.34;;;7.16;63.42
76994;BME280;66749;47.406;18.822;2023-03-20T03:41:39;100372.09;;;7.09;63.35
76994;BME280;66749;47.406;18.822;2023-03-20T03:42:29;100366.84;;;7.10;64.18
76994;BME280;66749;47.406;18.822;2023-03-20T03:43:31;100368.56;;;7.11;63.65
76994;BME280;66749;47.406;18.822;2023-03-20T03:44:55;100373.00;;;7.08;63.71
76994;BME280;66749;47.406;18.822;2023-03-20T03:45:44;100372.41;;;7.01;64.21
76994;BME280;66749;47.406;18.822;2023-03-20T03:46:52;100375.81;;;7.03;63.55
76994;BME280;66749;47.406;18.822;2023-03-20T03:47:49;100372.66;;;6.95;63.94
76994;BME280;66749;47.406;18.822;2023-03-20T03:48:31;100374.50;;;6.93;63.84
76994;BME280;66749;47.406;18.822;2023-03-20T03:49:08;100380.53;;;6.93;64.48
76994;BME280;66749;47.406;18.822;2023-03-20T03:49:50;100372.03;;;6.90;64.16
76994;BME280;66749;47.406;18.822;2023-03-20T03:50:28;100372.16;;;6.87;64.66
76994;BME280;66749;47.406;18.822;2023-03-20T03:51:06;100382.72;;;6.82;64.17
76994;BME280;66749;47.406;18.822;2023-03-20T03:51:41;100381.16;;;6.78;64.18
76994;BME280;66749;47.406;18.822;2023-03-20T03:52:21;100382.00;;;6.79;64.33
76994;BME280;66749;47.406;18.822;2023-03-20T03:53:00;100376.94;;;6.76;64.90
76994;BME280;66749;47.406;18.822;2023-03-20T03:53:41;100384.78;;;6.74;64.68